GGOV

Osvaldo Vieira International Airport

Bissau, Guinea-Bissau
TAF GGOV 162300Z 1700/1724 32007KT CAVOK
Issued Valid From Valid To
Jan-16 @ 23:00 UTC
(6 hours ago)
Jan-17 @ 00:00 UTC
(5 hours ago)
Jan-18 @ 00:00 UTC
(in 19 hours)
Jan-17 @ 00:00 to Jan-18 @ 00:00
TAF GGOV 162300Z 1700/1724 32007KT CAVOK
Wind Visibility Clouds Conditions
320° at 7 knots 10,000+ meters
  • No significant clouds
TAF GGOV 162300Z 1700/1724 32007KT CAVOK
Issued Jan-16 @ 23:00 UTC
(6 hours ago)
Valid From Jan-17 @ 00:00 UTC
(5 hours ago)
Valid To Jan-18 @ 00:00 UTC
(in 19 hours)
Jan-17 @ 00:00 - Jan-18 @ 00:00
Wind Visibility
320° at 7 knots 10,000+ meters
Clouds
  • No significant clouds
Conditions